createdAt,value
2019-03-12T00:00:51.618Z,98.22
2019-03-12T00:01:58.680Z,98.20
2019-03-12T00:03:03.400Z,98.23
2019-03-12T00:04:07.998Z,98.48
2019-03-12T00:05:12.262Z,98.49
2019-03-12T00:06:16.826Z,98.48
2019-03-12T00:07:21.094Z,98.46
2019-03-12T00:08:25.428Z,98.53
2019-03-12T00:09:29.694Z,98.63
2019-03-12T00:10:33.965Z,98.80
2019-03-12T00:11:38.218Z,98.97
2019-03-12T00:12:46.286Z,98.97
2019-03-12T00:13:50.582Z,98.96
2019-03-12T00:14:57.641Z,98.98
2019-03-12T00:16:04.351Z,98.97
2019-03-12T00:17:08.659Z,98.96
2019-03-12T00:18:16.197Z,98.97
2019-03-12T00:19:20.447Z,98.91
2019-03-12T00:20:30.295Z,98.97
2019-03-12T00:21:34.847Z,99.05
2019-03-12T00:22:41.825Z,99.06
2019-03-12T00:23:46.114Z,98.98
2019-03-12T00:24:53.089Z,99.11
2019-03-12T00:26:00.032Z,99.08
2019-03-12T00:27:04.300Z,99.15
2019-03-12T00:28:08.572Z,99.06
2019-03-12T00:29:14.497Z,99.08
2019-03-12T00:30:19.028Z,99.14
2019-03-12T00:31:26.254Z,99.13
2019-03-12T00:32:30.510Z,99.12
2019-03-12T00:33:37.483Z,99.14
2019-03-12T00:34:44.869Z,99.02
2019-03-12T00:35:49.141Z,99.07
2019-03-12T00:36:56.059Z,98.98
2019-03-12T00:38:03.021Z,99.11
2019-03-12T00:39:07.404Z,99.09
2019-03-12T00:40:13.566Z,99.05
2019-03-12T00:41:20.113Z,99.01
2019-03-12T00:42:23.805Z,99.05
2019-03-12T00:43:28.066Z,98.93
2019-03-12T00:44:35.334Z,98.88
2019-03-12T00:45:39.609Z,98.83
2019-03-12T00:46:43.861Z,98.86
2019-03-12T00:47:51.047Z,98.94
2019-03-12T00:48:55.339Z,99.01
2019-03-12T00:50:02.887Z,98.94
2019-03-12T00:51:07.207Z,98.85
2019-03-12T00:52:14.358Z,98.90
2019-03-12T00:53:18.625Z,98.86
2019-03-12T00:54:22.926Z,98.53
2019-03-12T00:55:29.826Z,98.61
2019-03-12T00:56:34.095Z,98.57
2019-03-12T00:57:38.349Z,98.51
2019-03-12T00:58:42.634Z,98.60
2019-03-12T00:59:49.629Z,98.50
2019-03-12T01:00:53.889Z,98.54
2019-03-12T01:02:00.834Z,98.50
2019-03-12T01:03:07.967Z,98.40
2019-03-12T01:04:12.255Z,98.31
2019-03-12T01:05:16.505Z,98.41
2019-03-12T01:06:23.423Z,98.34
2019-03-12T01:07:27.793Z,98.30
2019-03-12T01:08:32.407Z,98.31
2019-03-12T01:09:36.680Z,98.34
2019-03-12T01:10:43.674Z,98.14
2019-03-12T01:11:48.042Z,98.17
2019-03-12T01:12:55.164Z,98.17
2019-03-12T01:13:59.443Z,97.95
2019-03-12T01:15:09.003Z,98.15
2019-03-12T01:16:13.258Z,98.24
2019-03-12T01:17:17.677Z,98.21
2019-03-12T01:18:22.327Z,98.28
2019-03-12T01:19:27.055Z,98.18
2019-03-12T01:20:31.350Z,98.16
2019-03-12T01:21:35.597Z,98.10
2019-03-12T01:22:39.842Z,98.07
2019-03-12T01:23:44.100Z,98.18
2019-03-12T01:24:51.322Z,98.21
2019-03-12T01:25:55.611Z,98.23
2019-03-12T01:26:59.866Z,98.39
2019-03-12T01:28:07.328Z,98.48
2019-03-12T01:29:12.689Z,98.48
2019-03-12T01:30:19.885Z,98.59
2019-03-12T01:31:27.149Z,98.55
2019-03-12T01:32:31.415Z,98.54
2019-03-12T01:33:38.655Z,98.58
2019-03-12T01:34:42.962Z,98.63
2019-03-12T01:35:50.049Z,98.57
2019-03-12T01:36:54.311Z,98.66
2019-03-12T01:37:58.573Z,98.69
2019-03-12T01:39:02.843Z,98.75
2019-03-12T01:40:13.319Z,98.64
2019-03-12T01:41:17.602Z,98.68
2019-03-12T01:42:21.898Z,98.75
2019-03-12T01:43:26.502Z,98.79
2019-03-12T01:44:33.738Z,98.88
2019-03-12T01:45:37.992Z,98.88
2019-03-12T01:46:42.265Z,98.90
2019-03-12T01:47:46.520Z,98.81
2019-03-12T01:48:50.790Z,98.91
2019-03-12T01:49:55.099Z,98.93
2019-03-12T01:50:59.356Z,98.92
2019-03-12T01:52:03.611Z,98.86
2019-03-12T01:53:08.237Z,98.90
2019-03-12T01:54:12.529Z,99.04
2019-03-12T01:55:17.752Z,99.19
2019-03-12T01:56:24.710Z,99.18
2019-03-12T01:57:29.374Z,99.24
2019-03-12T01:58:33.628Z,99.30
2019-03-12T01:59:38.984Z,99.28
2019-03-12T02:00:43.277Z,99.31
2019-03-12T02:01:47.551Z,99.33
2019-03-12T02:02:54.530Z,99.30
2019-03-12T02:03:58.888Z,99.29
2019-03-12T02:05:03.192Z,99.28
2019-03-12T02:06:08.533Z,99.40
2019-03-12T02:07:15.526Z,99.39
2019-03-12T02:08:19.795Z,99.36
2019-03-12T02:09:25.329Z,99.38
2019-03-12T02:10:33.039Z,99.38
2019-03-12T02:11:37.305Z,99.40
2019-03-12T02:12:41.941Z,99.34
2019-03-12T02:13:46.306Z,99.35
2019-03-12T02:14:53.925Z,99.44
2019-03-12T02:15:58.194Z,99.36
2019-03-12T02:17:02.476Z,99.36
2019-03-12T02:18:06.807Z,99.37
2019-03-12T02:19:14.022Z,99.43
2019-03-12T02:20:21.248Z,99.43
2019-03-12T02:21:25.507Z,99.40
2019-03-12T02:22:32.700Z,99.33
2019-03-12T02:23:37.061Z,99.35
2019-03-12T02:24:52.101Z,99.37
2019-03-12T02:25:47.315Z,99.43
2019-03-12T02:26:51.587Z,99.34
2019-03-12T02:27:55.851Z,99.24
2019-03-12T02:29:03.680Z,99.07
2019-03-12T02:30:11.057Z,99.06
2019-03-12T02:31:15.388Z,99.12
2019-03-12T02:32:19.664Z,99.15
2019-03-12T02:33:24.020Z,99.07
2019-03-12T02:34:28.624Z,99.00
2019-03-12T02:35:32.905Z,99.02
2019-03-12T02:36:37.478Z,98.92
2019-03-12T02:37:42.052Z,98.89
2019-03-12T02:38:46.313Z,98.85
2019-03-12T02:39:50.719Z,98.80
2019-03-12T02:40:58.048Z,98.76
2019-03-12T02:42:02.341Z,98.74
2019-03-12T02:43:09.508Z,98.79
2019-03-12T02:44:17.959Z,98.71
2019-03-12T02:45:24.933Z,98.62
2019-03-12T02:46:31.903Z,98.54
2019-03-12T02:47:36.195Z,98.54
2019-03-12T02:48:40.485Z,98.51
2019-03-12T02:49:47.701Z,98.51
2019-03-12T02:50:51.994Z,98.38
2019-03-12T02:51:56.255Z,98.46
2019-03-12T02:53:00.539Z,98.47
2019-03-12T02:54:05.082Z,98.42
2019-03-12T02:55:09.729Z,98.42
2019-03-12T02:56:14.031Z,98.44
2019-03-12T02:57:18.467Z,98.45
2019-03-12T02:58:25.417Z,98.51
2019-03-12T02:59:32.687Z,98.45
2019-03-12T03:00:36.975Z,98.47
2019-03-12T03:01:41.229Z,98.42
2019-03-12T03:02:48.195Z,98.44
2019-03-12T03:03:52.481Z,98.35
2019-03-12T03:04:56.756Z,98.46
2019-03-12T03:06:05.698Z,98.28
2019-03-12T03:07:20.774Z,98.35
2019-03-12T03:08:26.688Z,98.35
2019-03-12T03:09:30.958Z,98.40
2019-03-12T03:10:38.202Z,98.36
2019-03-12T03:11:42.496Z,98.44
2019-03-12T03:12:46.764Z,98.43
2019-03-12T03:13:53.747Z,98.42
2019-03-12T03:15:04.946Z,98.41
2019-03-12T03:16:08.923Z,98.39
2019-03-12T03:17:14.537Z,98.40
2019-03-12T03:18:19.093Z,98.29
2019-03-12T03:19:23.365Z,98.41
2019-03-12T03:20:28.053Z,98.38
2019-03-12T03:21:32.353Z,98.28
2019-03-12T03:22:38.250Z,98.30
2019-03-12T03:23:44.579Z,98.39
2019-03-12T03:24:48.958Z,98.47
2019-03-12T03:25:56.241Z,98.50
2019-03-12T03:27:00.476Z,98.54
2019-03-12T03:28:07.508Z,98.42
2019-03-12T03:29:14.951Z,98.33
2019-03-12T03:30:23.557Z,98.26
2019-03-12T03:31:27.914Z,98.18
2019-03-12T03:32:32.689Z,98.31
2019-03-12T03:33:36.969Z,98.25
2019-03-12T03:34:41.276Z,98.19
2019-03-12T03:35:45.571Z,98.11
2019-03-12T03:36:52.757Z,98.06
2019-03-12T03:38:00.019Z,97.99
2019-03-12T03:39:05.798Z,97.85
2019-03-12T03:40:17.172Z,97.67
2019-03-12T03:41:21.457Z,97.73
2019-03-12T03:42:26.015Z,97.77
2019-03-12T03:43:33.174Z,97.67
2019-03-12T03:44:40.117Z,97.75
2019-03-12T03:45:44.384Z,97.73
2019-03-12T03:46:48.650Z,97.69
2019-03-12T03:47:52.916Z,97.68
2019-03-12T03:49:00.396Z,97.63
2019-03-12T03:50:06.712Z,97.57
2019-03-12T03:51:11.030Z,97.57
2019-03-12T03:52:15.331Z,97.53
2019-03-12T03:53:19.607Z,97.47
2019-03-12T03:54:23.848Z,97.44
2019-03-12T03:55:28.584Z,97.37
2019-03-12T03:56:33.283Z,97.37
2019-03-12T03:57:37.573Z,97.29
2019-03-12T03:58:44.524Z,97.25
2019-03-12T03:59:51.450Z,97.16
2019-03-12T04:00:55.704Z,97.20
2019-03-12T04:02:00.003Z,97.00
2019-03-12T04:03:04.282Z,97.00
2019-03-12T04:04:08.535Z,96.95
2019-03-12T04:05:15.746Z,97.15
2019-03-12T04:06:20.030Z,97.12
2019-03-12T04:07:24.441Z,96.89
2019-03-12T04:08:31.550Z,96.51
2019-03-12T04:09:35.816Z,96.44
2019-03-12T04:10:40.101Z,96.34
2019-03-12T04:11:44.388Z,96.21
2019-03-12T04:12:48.643Z,96.45
2019-03-12T04:13:52.910Z,96.30
2019-03-12T04:15:00.019Z,96.17
2019-03-12T04:16:04.336Z,95.78
2019-03-12T04:17:08.607Z,95.78
2019-03-12T04:18:18.508Z,95.86
2019-03-12T04:19:22.780Z,96.07
2019-03-12T04:20:27.015Z,96.15
2019-03-12T04:21:31.332Z,95.85
2019-03-12T04:22:38.533Z,96.05
2019-03-12T04:23:46.228Z,96.19
2019-03-12T04:24:50.522Z,96.30
2019-03-12T04:25:57.902Z,96.07
2019-03-12T04:27:02.183Z,96.08
2019-03-12T04:28:07.452Z,95.99
2019-03-12T04:29:11.685Z,95.86
2019-03-12T04:30:17.174Z,95.80
2019-03-12T04:31:21.438Z,95.87
2019-03-12T04:32:25.726Z,96.02
2019-03-12T04:33:52.934Z,95.83
2019-03-12T04:34:59.875Z,95.79
2019-03-12T04:36:04.133Z,95.81
2019-03-12T04:37:08.444Z,95.94
2019-03-12T04:38:15.665Z,96.10
2019-03-12T04:39:19.931Z,95.76
2019-03-12T04:40:26.866Z,95.72
2019-03-12T04:41:31.131Z,95.75
2019-03-12T04:42:41.029Z,95.30
2019-03-12T04:43:45.287Z,95.36
2019-03-12T04:44:49.544Z,95.24
2019-03-12T04:45:53.950Z,95.50
2019-03-12T04:46:58.431Z,95.58
2019-03-12T04:48:03.113Z,95.69
2019-03-12T04:49:10.157Z,95.74
2019-03-12T04:50:14.910Z,95.51
2019-03-12T04:51:19.883Z,95.63
2019-03-12T04:52:24.385Z,95.72
2019-03-12T04:53:28.659Z,95.36
2019-03-12T04:54:35.954Z,95.41
2019-03-12T04:55:40.377Z,95.61
2019-03-12T04:56:47.395Z,95.49
2019-03-12T04:57:51.675Z,95.33
2019-03-12T04:58:59.599Z,95.20
2019-03-12T05:00:10.525Z,95.15
2019-03-12T05:01:15.171Z,95.23
2019-03-12T05:02:19.776Z,95.33
2019-03-12T05:03:24.030Z,95.42
2019-03-12T05:04:28.295Z,95.48
2019-03-12T05:05:35.659Z,95.00
2019-03-12T05:06:40.010Z,94.97
2019-03-12T05:07:47.319Z,95.06
2019-03-12T05:08:55.211Z,95.50
2019-03-12T05:09:59.492Z,94.69
2019-03-12T05:11:03.876Z,94.56
2019-03-12T05:12:08.324Z,94.37
2019-03-12T05:13:13.102Z,94.17
2019-03-12T05:14:26.783Z,93.87
2019-03-12T05:15:31.369Z,94.02
2019-03-12T05:16:35.639Z,93.79
2019-03-12T05:17:39.930Z,93.66
2019-03-12T05:18:44.183Z,93.12
2019-03-12T05:19:48.477Z,93.09
2019-03-12T05:20:55.532Z,93.29
2019-03-12T05:21:59.799Z,93.50
2019-03-12T05:23:04.466Z,93.21
2019-03-12T05:24:08.746Z,93.27
2019-03-12T05:25:15.863Z,93.25
2019-03-12T05:26:24.142Z,92.99
2019-03-12T05:27:28.429Z,92.95
2019-03-12T05:28:33.817Z,92.63
2019-03-12T05:29:42.949Z,92.82
2019-03-12T05:30:47.567Z,92.76
2019-03-12T05:31:52.246Z,93.00
2019-03-12T05:32:56.850Z,93.12
2019-03-12T05:34:01.122Z,93.23
2019-03-12T05:35:05.745Z,93.16
2019-03-12T05:36:09.992Z,93.25
2019-03-12T05:37:17.415Z,92.98
2019-03-12T05:38:21.699Z,92.78
2019-03-12T05:39:25.954Z,92.98
2019-03-12T05:40:30.218Z,93.20
2019-03-12T05:41:34.481Z,93.53
2019-03-12T05:42:38.761Z,93.43
2019-03-12T05:43:43.345Z,93.32
2019-03-12T05:44:50.261Z,93.27
2019-03-12T05:45:54.530Z,93.42
2019-03-12T05:46:59.127Z,93.64
2019-03-12T05:48:06.394Z,93.72
2019-03-12T05:49:10.666Z,93.34
2019-03-12T05:50:21.658Z,93.37
2019-03-12T05:51:25.918Z,92.92
2019-03-12T05:52:30.515Z,93.13
2019-03-12T05:53:49.482Z,93.14
2019-03-12T05:54:53.749Z,93.53
2019-03-12T05:55:58.050Z,93.40
2019-03-12T05:57:02.646Z,93.25
2019-03-12T05:58:07.223Z,93.21
2019-03-12T05:59:18.130Z,92.91
2019-03-12T06:00:26.685Z,92.30
2019-03-12T06:01:31.175Z,92.62
2019-03-12T06:02:35.470Z,92.33
2019-03-12T06:03:39.739Z,92.44
2019-03-12T06:04:44.023Z,92.36
2019-03-12T06:05:50.983Z,92.44
2019-03-12T06:06:55.666Z,92.17
2019-03-12T06:08:03.445Z,91.48
2019-03-12T06:09:07.721Z,91.42
2019-03-12T06:10:14.120Z,91.31
2019-03-12T06:11:21.398Z,91.75
2019-03-12T06:12:26.425Z,91.98
2019-03-12T06:13:30.707Z,91.71
2019-03-12T06:14:34.958Z,91.76
2019-03-12T06:15:42.173Z,91.72
2019-03-12T06:16:46.584Z,91.92
2019-03-12T06:17:53.575Z,91.72
2019-03-12T06:18:57.825Z,91.56
2019-03-12T06:20:11.116Z,91.61
2019-03-12T06:21:15.377Z,91.45
2019-03-12T06:22:19.973Z,91.40
2019-03-12T06:23:24.268Z,91.40
2019-03-12T06:24:28.491Z,91.23
2019-03-12T06:25:35.678Z,91.40
2019-03-12T06:26:42.858Z,91.39
2019-03-12T06:27:47.277Z,91.76
2019-03-12T06:28:54.573Z,90.91
2019-03-12T06:30:01.737Z,91.00
2019-03-12T06:31:13.836Z,91.00
2019-03-12T06:32:19.721Z,90.92
2019-03-12T06:33:42.218Z,91.25
2019-03-12T06:34:50.962Z,91.11
2019-03-12T06:36:05.330Z,91.04
2019-03-12T06:37:20.359Z,91.21
2019-03-12T06:38:37.839Z,91.14
2019-03-12T06:39:52.930Z,90.32
2019-03-12T06:40:59.166Z,90.81
2019-03-12T06:42:07.712Z,90.82
2019-03-12T06:43:28.369Z,89.89
2019-03-12T06:44:50.721Z,88.30
2019-03-12T06:45:59.065Z,88.68
2019-03-12T06:47:04.966Z,88.86
2019-03-12T06:48:19.598Z,88.32
2019-03-12T06:49:28.926Z,88.88
2019-03-12T06:50:56.383Z,89.23
2019-03-12T06:52:05.360Z,88.95
2019-03-12T06:53:14.598Z,89.04
2019-03-12T06:54:29.320Z,89.08
2019-03-12T06:55:41.926Z,88.42
2019-03-12T06:57:05.585Z,89.07
2019-03-12T06:58:23.236Z,89.17
2019-03-12T06:59:32.269Z,89.08
2019-03-12T07:00:43.730Z,89.08
2019-03-12T07:01:52.658Z,89.36
2019-03-12T07:03:07.608Z,89.21
2019-03-12T07:04:30.060Z,88.81
2019-03-12T07:05:41.881Z,88.91
2019-03-12T07:07:10.990Z,88.87
2019-03-12T07:08:17.086Z,88.32
2019-03-12T07:09:25.454Z,88.92
2019-03-12T07:10:47.610Z,88.44
2019-03-12T07:11:59.599Z,89.03
2019-03-12T07:13:17.545Z,89.01
2019-03-12T07:14:29.163Z,88.80
2019-03-12T07:15:40.716Z,89.23
2019-03-12T07:17:07.989Z,89.33
2019-03-12T07:18:16.800Z,88.99
2019-03-12T07:19:38.992Z,89.18
2019-03-12T07:20:47.634Z,89.07
2019-03-12T07:21:56.512Z,89.33
2019-03-12T07:23:07.592Z,89.62
2019-03-12T07:24:16.197Z,89.15
2019-03-12T07:25:31.034Z,89.18
2019-03-12T07:26:52.079Z,89.26
2019-03-12T07:28:14.314Z,89.28
2019-03-12T07:29:35.184Z,89.10
2019-03-12T07:30:43.650Z,88.83
2019-03-12T07:31:58.782Z,88.91
2019-03-12T07:33:07.613Z,88.78
2019-03-12T07:34:19.259Z,88.66
2019-03-12T07:35:28.220Z,88.54
2019-03-12T07:36:34.169Z,88.61
2019-03-12T07:37:40.060Z,88.44
2019-03-12T07:38:45.947Z,88.49
2019-03-12T07:39:51.831Z,89.08
2019-03-12T07:41:00.822Z,88.96
2019-03-12T07:42:12.723Z,89.00
2019-03-12T07:43:37.222Z,89.00
2019-03-12T07:44:48.996Z,88.63
2019-03-12T07:46:03.701Z,88.35
2019-03-12T07:47:18.864Z,89.11
2019-03-12T07:48:39.608Z,89.07
2019-03-12T07:50:07.066Z,88.87
2019-03-12T07:51:28.949Z,88.89
2019-03-12T07:52:51.141Z,88.67
2019-03-12T07:54:00.045Z,89.22
2019-03-12T07:55:07.163Z,89.52
2019-03-12T07:56:25.837Z,89.48
2019-03-12T07:57:51.068Z,89.63
2019-03-12T07:59:14.361Z,89.71
2019-03-12T08:00:36.487Z,89.36
2019-03-12T08:01:45.092Z,89.65
2019-03-12T08:03:06.131Z,89.82
2019-03-12T08:04:12.032Z,90.18
2019-03-12T08:05:24.211Z,89.64
2019-03-12T08:06:46.731Z,89.93
2019-03-12T08:07:52.673Z,89.84
2019-03-12T08:09:01.212Z,89.79
2019-03-12T08:10:21.475Z,89.79
2019-03-12T08:11:31.014Z,89.71
2019-03-12T08:12:47.316Z,89.58
2019-03-12T08:14:11.281Z,89.23
2019-03-12T08:15:23.253Z,89.31
2019-03-12T08:16:36.217Z,89.99
2019-03-12T08:17:51.003Z,89.64
2019-03-12T08:19:15.231Z,89.55
2019-03-12T08:20:32.417Z,89.51
2019-03-12T08:21:44.603Z,89.30
2019-03-12T08:22:50.549Z,89.84
2019-03-12T08:23:56.472Z,89.54
2019-03-12T08:25:05.354Z,88.91
2019-03-12T08:26:11.251Z,89.32
2019-03-12T08:27:33.358Z,89.53
2019-03-12T08:28:42.353Z,89.56
2019-03-12T08:29:57.341Z,89.24
2019-03-12T08:31:09.358Z,89.85
2019-03-12T08:32:33.787Z,90.03
2019-03-12T08:33:50.435Z,89.35
2019-03-12T08:34:52.405Z,89.42
2019-03-12T08:35:58.307Z,89.29
2019-03-12T08:37:22.011Z,88.92
2019-03-12T08:38:27.978Z,88.75
2019-03-12T08:39:44.613Z,88.70
2019-03-12T08:40:52.784Z,88.05
2019-03-12T08:41:58.147Z,87.80
2019-03-12T08:43:10.195Z,88.25
2019-03-12T08:44:16.082Z,88.43
2019-03-12T08:45:33.931Z,88.03
2019-03-12T08:46:59.255Z,87.55
2019-03-12T08:48:08.239Z,87.49
2019-03-12T08:49:17.110Z,87.81
2019-03-12T08:50:34.585Z,87.89
2019-03-12T08:51:46.118Z,87.89
2019-03-12T08:52:52.010Z,87.71
2019-03-12T08:54:06.763Z,87.17
2019-03-12T08:55:18.835Z,87.28
2019-03-12T08:56:36.337Z,87.59
2019-03-12T08:57:58.423Z,87.15
2019-03-12T08:59:13.289Z,87.86
2019-03-12T09:00:24.117Z,86.98
2019-03-12T09:01:33.151Z,86.95
2019-03-12T09:02:57.030Z,87.05
2019-03-12T09:04:19.245Z,87.26
2019-03-12T09:05:44.579Z,86.28
2019-03-12T09:07:09.206Z,86.64
2019-03-12T09:08:18.195Z,87.47
2019-03-12T09:09:39.337Z,86.41
2019-03-12T09:11:01.702Z,86.57
2019-03-12T09:12:22.833Z,86.57
2019-03-12T09:13:46.474Z,85.21
2019-03-12T09:14:56.162Z,85.68
2019-03-12T09:16:02.139Z,85.68
2019-03-12T09:17:08.192Z,84.44
2019-03-12T09:18:19.430Z,84.45
2019-03-12T09:19:25.357Z,85.08
2019-03-12T09:20:31.255Z,83.78
2019-03-12T09:21:42.492Z,84.71
2019-03-12T09:22:50.701Z,85.32
2019-03-12T09:23:56.530Z,85.84
2019-03-12T09:25:16.275Z,85.23
2019-03-12T09:26:34.422Z,85.29
2019-03-12T09:28:03.966Z,83.80
2019-03-12T09:29:21.843Z,84.76
2019-03-12T09:30:39.552Z,85.13
2019-03-12T09:31:46.961Z,85.26
2019-03-12T09:33:09.438Z,85.08
2019-03-12T09:34:32.767Z,84.89
2019-03-12T09:35:56.750Z,84.54
2019-03-12T09:37:08.474Z,85.13
2019-03-12T09:38:30.700Z,84.38
2019-03-12T09:39:42.679Z,82.56
2019-03-12T09:41:06.844Z,82.54
2019-03-12T09:42:13.819Z,82.68
2019-03-12T09:43:20.079Z,81.64
2019-03-12T09:44:45.539Z,80.49
2019-03-12T09:45:54.405Z,81.30
2019-03-12T09:47:03.100Z,80.67
2019-03-12T09:48:09.038Z,80.09
2019-03-12T09:49:15.004Z,80.39
2019-03-12T09:50:31.382Z,80.74
2019-03-12T09:51:39.991Z,79.70
2019-03-12T09:52:54.780Z,80.13
2019-03-12T09:54:18.752Z,80.25
2019-03-12T09:55:30.492Z,80.55
2019-03-12T09:56:48.579Z,80.41
2019-03-12T09:58:10.933Z,81.17
2019-03-12T09:59:23.309Z,80.22
2019-03-12T10:00:50.723Z,79.83
2019-03-12T10:01:59.436Z,79.27
2019-03-12T10:03:20.573Z,79.67
2019-03-12T10:04:45.103Z,80.02
2019-03-12T10:06:10.109Z,78.96
2019-03-12T10:07:19.225Z,79.22
2019-03-12T10:08:41.539Z,79.72
2019-03-12T10:10:05.083Z,78.21
2019-03-12T10:11:30.311Z,78.92
2019-03-12T10:12:48.277Z,78.04
2019-03-12T10:14:03.002Z,77.31
2019-03-12T10:15:16.705Z,77.57
2019-03-12T10:16:43.822Z,77.55
2019-03-12T10:17:55.355Z,77.99
2019-03-12T10:19:12.670Z,75.49
2019-03-12T10:20:18.580Z,74.95
2019-03-12T10:21:30.267Z,74.01
2019-03-12T10:22:36.152Z,74.55
2019-03-12T10:23:42.067Z,74.06
2019-03-12T10:24:50.769Z,73.03
2019-03-12T10:26:16.130Z,73.31
2019-03-12T10:27:34.024Z,72.35
2019-03-12T10:28:58.560Z,72.87
2019-03-12T10:30:20.908Z,71.84
2019-03-12T10:31:32.193Z,71.87
2019-03-12T10:32:38.090Z,72.06
2019-03-12T10:33:43.997Z,70.29
2019-03-12T10:34:59.047Z,71.22
2019-03-12T10:36:09.632Z,69.36
2019-03-12T10:37:18.398Z,69.23
2019-03-12T10:39:09.965Z,69.29
2019-03-12T10:40:18.766Z,69.23
2019-03-12T10:41:27.291Z,69.95
2019-03-12T10:43:01.737Z,69.95
2019-03-12T10:44:10.310Z,68.56
2019-03-12T10:45:19.125Z,68.84
2019-03-12T10:46:28.123Z,67.51
2019-03-12T10:47:37.316Z,66.69
2019-03-12T10:48:41.677Z,65.90
2019-03-12T10:49:48.709Z,68.91
2019-03-12T10:50:52.967Z,67.70
2019-03-12T10:51:57.318Z,67.97
2019-03-12T10:53:04.577Z,69.58
2019-03-12T10:54:08.843Z,69.64
2019-03-12T10:55:16.358Z,71.55
2019-03-12T10:56:20.614Z,68.63
2019-03-12T10:57:27.673Z,67.92
2019-03-12T10:58:31.939Z,69.46
2019-03-12T10:59:39.560Z,68.50
2019-03-12T11:00:46.869Z,65.64
2019-03-12T11:01:53.862Z,66.97
2019-03-12T11:02:58.117Z,67.43
2019-03-12T11:04:05.048Z,67.89
2019-03-12T11:05:09.313Z,68.01
2019-03-12T11:06:16.535Z,68.92
2019-03-12T11:07:20.812Z,68.18
2019-03-12T11:08:26.672Z,66.68
2019-03-12T11:09:30.967Z,66.41
2019-03-12T11:10:35.176Z,66.42
2019-03-12T11:11:39.888Z,66.96
2019-03-12T11:12:44.117Z,66.02
2019-03-12T11:13:48.404Z,65.25
2019-03-12T11:14:52.642Z,65.68
2019-03-12T11:15:59.841Z,64.17
2019-03-12T11:17:06.921Z,64.62
2019-03-12T11:18:11.181Z,65.18
2019-03-12T11:19:18.411Z,66.45
2019-03-12T11:20:25.844Z,66.34
2019-03-12T11:21:30.495Z,66.72
2019-03-12T11:22:37.817Z,66.24
2019-03-12T11:23:42.395Z,65.78
2019-03-12T11:24:46.640Z,65.78
2019-03-12T11:25:53.732Z,65.82
2019-03-12T11:26:58.378Z,65.85
2019-03-12T11:28:05.527Z,65.34
2019-03-12T11:29:12.739Z,64.22
2019-03-12T11:30:20.630Z,63.80
2019-03-12T11:31:28.087Z,64.52
2019-03-12T11:32:32.369Z,65.48
2019-03-12T11:33:36.932Z,65.01
2019-03-12T11:34:42.041Z,65.17
2019-03-12T11:35:49.639Z,65.57
2019-03-12T11:36:57.998Z,65.85
2019-03-12T11:38:02.456Z,63.19
2019-03-12T11:39:07.105Z,62.44
2019-03-12T11:40:31.618Z,62.39
2019-03-12T11:41:35.763Z,62.09
2019-03-12T11:42:40.502Z,61.13
2019-03-12T11:43:44.814Z,59.25
2019-03-12T11:44:53.481Z,60.59
2019-03-12T11:45:58.125Z,61.72
2019-03-12T11:47:02.768Z,61.42
2019-03-12T11:48:10.248Z,59.98
2019-03-12T11:49:18.693Z,58.80
2019-03-12T11:50:26.681Z,59.04
2019-03-12T11:51:33.742Z,57.02
2019-03-12T11:52:41.191Z,57.34
2019-03-12T11:53:45.470Z,57.41
2019-03-12T11:54:49.730Z,56.38
2019-03-12T11:55:54.392Z,58.67
2019-03-12T11:56:58.721Z,57.85
2019-03-12T11:58:02.973Z,56.74
2019-03-12T11:59:07.261Z,57.45
2019-03-12T12:00:24.305Z,55.93
2019-03-12T12:01:31.602Z,54.74
2019-03-12T12:02:38.563Z,52.75
2019-03-12T12:03:45.981Z,53.45
2019-03-12T12:04:53.194Z,55.06
2019-03-12T12:05:57.475Z,54.62
2019-03-12T12:07:01.704Z,54.67
2019-03-12T12:08:06.009Z,54.48
2019-03-12T12:09:11.894Z,55.40
2019-03-12T12:10:19.496Z,53.81
2019-03-12T12:11:24.081Z,54.13
2019-03-12T12:12:31.285Z,53.65
2019-03-12T12:13:35.551Z,53.72
2019-03-12T12:14:40.191Z,54.11
2019-03-12T12:15:47.111Z,54.28
2019-03-12T12:16:51.363Z,54.07
2019-03-12T12:17:55.625Z,55.26
2019-03-12T12:18:59.869Z,54.62
2019-03-12T12:20:12.643Z,54.57
2019-03-12T12:21:16.911Z,55.40
2019-03-12T12:22:24.128Z,55.13
2019-03-12T12:23:28.377Z,55.49
2019-03-12T12:24:32.634Z,55.75
2019-03-12T12:25:39.888Z,55.45
2019-03-12T12:26:47.044Z,54.48
2019-03-12T12:27:54.246Z,54.22
2019-03-12T12:28:58.518Z,55.06
2019-03-12T12:30:03.209Z,53.46
2019-03-12T12:31:08.130Z,54.04
2019-03-12T12:32:15.346Z,51.97
2019-03-12T12:33:19.613Z,52.72
2019-03-12T12:34:26.884Z,51.05
2019-03-12T12:35:31.121Z,51.23
2019-03-12T12:36:38.485Z,52.76
2019-03-12T12:37:45.455Z,53.60
2019-03-12T12:38:52.740Z,52.93
2019-03-12T12:39:56.976Z,53.03
2019-03-12T12:41:01.549Z,52.80
2019-03-12T12:42:05.807Z,51.43
2019-03-12T12:43:10.084Z,51.33
2019-03-12T12:44:14.347Z,50.29
2019-03-12T12:45:29.922Z,50.92
2019-03-12T12:46:36.903Z,50.69
2019-03-12T12:47:42.417Z,50.05
2019-03-12T12:48:46.656Z,51.28
2019-03-12T12:49:50.932Z,51.01
2019-03-12T12:51:03.241Z,50.66
2019-03-12T12:52:03.843Z,51.35
2019-03-12T12:53:08.109Z,51.43
2019-03-12T12:54:12.361Z,49.75
2019-03-12T12:55:19.498Z,51.17
2019-03-12T12:56:23.745Z,48.21
2019-03-12T12:57:31.774Z,49.07
2019-03-12T12:58:36.057Z,47.21
2019-03-12T12:59:40.322Z,48.35
2019-03-12T13:00:47.489Z,46.27
2019-03-12T13:01:54.693Z,47.43
2019-03-12T13:02:59.038Z,46.28
2019-03-12T13:04:03.303Z,46.66
2019-03-12T13:05:07.864Z,47.26
2019-03-12T13:06:12.125Z,46.08
2019-03-12T13:07:19.168Z,45.80
2019-03-12T13:08:23.461Z,45.99
2019-03-12T13:09:30.887Z,46.93
2019-03-12T13:10:35.650Z,47.10
2019-03-12T13:11:40.114Z,47.47
2019-03-12T13:12:47.371Z,47.51
2019-03-12T13:13:51.648Z,47.47
2019-03-12T13:14:58.567Z,47.04
2019-03-12T13:16:02.837Z,47.13
2019-03-12T13:17:07.076Z,47.60
2019-03-12T13:18:11.353Z,48.17
2019-03-12T13:19:18.708Z,47.20
2019-03-12T13:20:25.700Z,48.02
2019-03-12T13:21:33.829Z,46.93
2019-03-12T13:22:40.859Z,46.64
2019-03-12T13:23:45.140Z,46.82
2019-03-12T13:24:49.405Z,46.81
2019-03-12T13:25:54.269Z,46.15
2019-03-12T13:26:58.778Z,46.73
2019-03-12T13:28:03.201Z,47.54
2019-03-12T13:29:10.699Z,47.63
2019-03-12T13:30:21.920Z,48.05
2019-03-12T13:31:28.366Z,48.75
2019-03-12T13:32:35.667Z,47.99
2019-03-12T13:33:40.122Z,49.33
2019-03-12T13:34:44.369Z,48.50
2019-03-12T13:35:51.919Z,49.21
2019-03-12T13:36:56.510Z,48.56
2019-03-12T13:38:01.138Z,47.18
2019-03-12T13:39:06.341Z,46.79
2019-03-12T13:40:20.815Z,47.82
2019-03-12T13:41:27.900Z,48.11
2019-03-12T13:42:34.821Z,47.97
2019-03-12T13:43:39.066Z,47.41
2019-03-12T13:44:43.657Z,48.33
2019-03-12T13:45:47.878Z,47.45
2019-03-12T13:46:55.141Z,48.50
2019-03-12T13:48:03.091Z,48.16
2019-03-12T13:49:07.682Z,48.76
2019-03-12T13:50:12.791Z,47.68
2019-03-12T13:51:17.029Z,48.17
2019-03-12T13:52:23.981Z,48.45
2019-03-12T13:53:28.423Z,48.01
2019-03-12T13:54:32.751Z,46.78
2019-03-12T13:55:40.305Z,46.72
2019-03-12T13:56:44.613Z,46.44
2019-03-12T13:57:48.847Z,47.37
2019-03-12T13:58:53.202Z,48.05
2019-03-12T14:00:01.038Z,47.46
2019-03-12T14:01:06.868Z,47.15
2019-03-12T14:02:11.119Z,46.75
2019-03-12T14:03:15.732Z,46.76
2019-03-12T14:04:20.008Z,48.89
2019-03-12T14:05:24.333Z,48.74
2019-03-12T14:06:31.434Z,47.95
2019-03-12T14:07:38.617Z,47.19
2019-03-12T14:08:43.326Z,48.07
2019-03-12T14:09:47.580Z,48.05
2019-03-12T14:10:54.763Z,47.04
2019-03-12T14:11:59.480Z,47.98
2019-03-12T14:13:03.750Z,48.01
2019-03-12T14:14:08.432Z,48.27
2019-03-12T14:15:32.703Z,48.19
2019-03-12T14:16:39.885Z,47.37
2019-03-12T14:17:44.145Z,47.44
2019-03-12T14:18:49.540Z,47.84
2019-03-12T14:19:53.788Z,48.13
2019-03-12T14:21:07.484Z,48.40
2019-03-12T14:22:12.051Z,48.02
2019-03-12T14:23:22.065Z,48.34
2019-03-12T14:24:29.252Z,48.17
2019-03-12T14:25:36.773Z,48.02
2019-03-12T14:26:44.149Z,47.37
2019-03-12T14:27:48.780Z,47.36
2019-03-12T14:28:54.029Z,47.16
2019-03-12T14:29:58.625Z,46.74
2019-03-12T14:31:03.242Z,48.20
2019-03-12T14:32:12.093Z,47.81
2019-03-12T14:33:19.236Z,46.12
2019-03-12T14:34:26.720Z,47.35
2019-03-12T14:35:29.459Z,47.45
2019-03-12T14:36:36.951Z,46.87
2019-03-12T14:37:43.926Z,47.58